sensor_id;sensor_type;location;lat;lon;timestamp;P1;durP1;ratioP1;P2;durP2;ratioP2
10293;SDS011;5192;50.328;7.610;2023-09-18T00:00:30;9.73;;;5.97;;
10293;SDS011;5192;50.328;7.610;2023-09-18T00:03:00;5.82;;;5.22;;
10293;SDS011;5192;50.328;7.610;2023-09-18T00:05:29;9.00;;;5.35;;
10293;SDS011;5192;50.328;7.610;2023-09-18T00:07:57;8.77;;;5.25;;
10293;SDS011;5192;50.328;7.610;2023-09-18T00:10:22;9.45;;;5.35;;
10293;SDS011;5192;50.328;7.610;2023-09-18T00:12:53;8.63;;;5.38;;
10293;SDS011;5192;50.328;7.610;2023-09-18T00:15:18;9.30;;;5.32;;
10293;SDS011;5192;50.328;7.610;2023-09-18T00:17:47;12.43;;;5.47;;
10293;SDS011;5192;50.328;7.610;2023-09-18T00:20:12;7.65;;;5.78;;
10293;SDS011;5192;50.328;7.610;2023-09-18T00:22:46;8.18;;;4.88;;
10293;SDS011;5192;50.328;7.610;2023-09-18T00:25:14;7.15;;;5.32;;
10293;SDS011;5192;50.328;7.610;2023-09-18T00:27:42;6.15;;;5.05;;
10293;SDS011;5192;50.328;7.610;2023-09-18T00:30:08;7.90;;;5.38;;
10293;SDS011;5192;50.328;7.610;2023-09-18T00:32:38;7.20;;;5.07;;
10293;SDS011;5192;50.328;7.610;2023-09-18T00:35:05;7.45;;;4.82;;
10293;SDS011;5192;50.328;7.610;2023-09-18T00:37:32;7.07;;;5.63;;
10293;SDS011;5192;50.328;7.610;2023-09-18T00:39:58;6.38;;;4.45;;
10293;SDS011;5192;50.328;7.610;2023-09-18T00:42:27;7.93;;;5.38;;
10293;SDS011;5192;50.328;7.610;2023-09-18T00:44:52;7.85;;;4.88;;
10293;SDS011;5192;50.328;7.610;2023-09-18T00:47:21;6.57;;;4.70;;
10293;SDS011;5192;50.328;7.610;2023-09-18T00:49:48;8.32;;;4.82;;
10293;SDS011;5192;50.328;7.610;2023-09-18T00:52:17;8.77;;;5.30;;
10293;SDS011;5192;50.328;7.610;2023-09-18T00:54:57;10.52;;;4.90;;
10293;SDS011;5192;50.328;7.610;2023-09-18T00:57:22;6.07;;;4.63;;
10293;SDS011;5192;50.328;7.610;2023-09-18T00:59:50;8.40;;;4.50;;
10293;SDS011;5192;50.328;7.610;2023-09-18T01:02:18;8.25;;;5.72;;
10293;SDS011;5192;50.328;7.610;2023-09-18T01:04:47;8.98;;;5.03;;
10293;SDS011;5192;50.328;7.610;2023-09-18T01:07:15;8.50;;;5.30;;
10293;SDS011;5192;50.328;7.610;2023-09-18T01:09:42;9.88;;;5.25;;
10293;SDS011;5192;50.328;7.610;2023-09-18T01:17:40;8.07;;;5.97;;
10293;SDS011;5192;50.328;7.610;2023-09-18T01:20:10;9.02;;;5.68;;
10293;SDS011;5192;50.328;7.610;2023-09-18T01:22:38;9.68;;;6.53;;
10293;SDS011;5192;50.328;7.610;2023-09-18T01:25:05;7.72;;;6.00;;
10293;SDS011;5192;50.328;7.610;2023-09-18T01:27:33;12.13;;;6.05;;
10293;SDS011;5192;50.328;7.610;2023-09-18T01:30:00;9.52;;;6.38;;
10293;SDS011;5192;50.328;7.610;2023-09-18T01:32:30;10.93;;;6.00;;
10293;SDS011;5192;50.328;7.610;2023-09-18T01:35:02;11.02;;;6.13;;
10293;SDS011;5192;50.328;7.610;2023-09-18T01:37:34;11.30;;;6.00;;
10293;SDS011;5192;50.328;7.610;2023-09-18T01:40:04;10.10;;;6.10;;
10293;SDS011;5192;50.328;7.610;2023-09-18T01:42:32;12.40;;;5.35;;
10293;SDS011;5192;50.328;7.610;2023-09-18T01:45:01;8.18;;;4.60;;
10293;SDS011;5192;50.328;7.610;2023-09-18T01:47:32;7.75;;;4.15;;
10293;SDS011;5192;50.328;7.610;2023-09-18T01:49:59;9.85;;;3.95;;
10293;SDS011;5192;50.328;7.610;2023-09-18T01:52:34;10.23;;;4.20;;
10293;SDS011;5192;50.328;7.610;2023-09-18T01:55:02;9.10;;;3.45;;
10293;SDS011;5192;50.328;7.610;2023-09-18T01:57:31;12.57;;;4.30;;
10293;SDS011;5192;50.328;7.610;2023-09-18T01:59:58;9.75;;;3.88;;
10293;SDS011;5192;50.328;7.610;2023-09-18T02:02:26;8.15;;;3.63;;
10293;SDS011;5192;50.328;7.610;2023-09-18T02:04:53;11.10;;;3.85;;
10293;SDS011;5192;50.328;7.610;2023-09-18T02:07:20;10.20;;;4.15;;
10293;SDS011;5192;50.328;7.610;2023-09-18T02:09:48;8.02;;;4.53;;
10293;SDS011;5192;50.328;7.610;2023-09-18T02:12:15;10.32;;;4.63;;
10293;SDS011;5192;50.328;7.610;2023-09-18T02:14:44;14.23;;;4.93;;
10293;SDS011;5192;50.328;7.610;2023-09-18T02:17:10;9.70;;;4.13;;
10293;SDS011;5192;50.328;7.610;2023-09-18T02:19:38;8.73;;;4.53;;
10293;SDS011;5192;50.328;7.610;2023-09-18T02:22:06;11.77;;;4.75;;
10293;SDS011;5192;50.328;7.610;2023-09-18T02:24:32;11.38;;;4.72;;
10293;SDS011;5192;50.328;7.610;2023-09-18T02:27:00;12.55;;;4.97;;
10293;SDS011;5192;50.328;7.610;2023-09-18T02:29:30;7.63;;;4.15;;
10293;SDS011;5192;50.328;7.610;2023-09-18T02:31:58;11.38;;;4.57;;
10293;SDS011;5192;50.328;7.610;2023-09-18T02:34:25;9.75;;;4.80;;
10293;SDS011;5192;50.328;7.610;2023-09-18T02:36:55;12.05;;;5.40;;
10293;SDS011;5192;50.328;7.610;2023-09-18T02:39:22;9.32;;;5.32;;
10293;SDS011;5192;50.328;7.610;2023-09-18T02:41:50;12.95;;;5.28;;
10293;SDS011;5192;50.328;7.610;2023-09-18T02:44:15;12.98;;;5.32;;
10293;SDS011;5192;50.328;7.610;2023-09-18T02:46:43;10.23;;;5.40;;
10293;SDS011;5192;50.328;7.610;2023-09-18T02:49:09;10.57;;;4.93;;
10293;SDS011;5192;50.328;7.610;2023-09-18T02:51:37;11.18;;;5.45;;
10293;SDS011;5192;50.328;7.610;2023-09-18T02:54:04;10.15;;;5.65;;
10293;SDS011;5192;50.328;7.610;2023-09-18T02:56:32;7.13;;;5.35;;
10293;SDS011;5192;50.328;7.610;2023-09-18T02:58:57;7.68;;;4.93;;
10293;SDS011;5192;50.328;7.610;2023-09-18T03:01:24;10.88;;;4.82;;
10293;SDS011;5192;50.328;7.610;2023-09-18T03:03:52;10.13;;;4.80;;
10293;SDS011;5192;50.328;7.610;2023-09-18T03:06:20;8.38;;;5.00;;
10293;SDS011;5192;50.328;7.610;2023-09-18T03:08:48;10.75;;;4.80;;
10293;SDS011;5192;50.328;7.610;2023-09-18T03:11:17;10.25;;;4.60;;
10293;SDS011;5192;50.328;7.610;2023-09-18T03:13:43;10.02;;;4.70;;
10293;SDS011;5192;50.328;7.610;2023-09-18T03:16:13;12.68;;;5.18;;
10293;SDS011;5192;50.328;7.610;2023-09-18T03:18:39;8.32;;;4.50;;
10293;SDS011;5192;50.328;7.610;2023-09-18T03:21:06;8.38;;;4.53;;
10293;SDS011;5192;50.328;7.610;2023-09-18T03:23:33;8.95;;;4.88;;
10293;SDS011;5192;50.328;7.610;2023-09-18T03:26:00;8.98;;;4.82;;
10293;SDS011;5192;50.328;7.610;2023-09-18T03:28:28;6.97;;;4.82;;
10293;SDS011;5192;50.328;7.610;2023-09-18T03:30:59;9.43;;;4.72;;
10293;SDS011;5192;50.328;7.610;2023-09-18T03:33:34;9.55;;;5.13;;
10293;SDS011;5192;50.328;7.610;2023-09-18T03:36:00;9.30;;;5.32;;
10293;SDS011;5192;50.328;7.610;2023-09-18T03:38:32;10.25;;;4.85;;
10293;SDS011;5192;50.328;7.610;2023-09-18T03:41:00;11.57;;;5.20;;
10293;SDS011;5192;50.328;7.610;2023-09-18T03:43:28;8.30;;;4.80;;
10293;SDS011;5192;50.328;7.610;2023-09-18T03:45:55;9.02;;;4.53;;
10293;SDS011;5192;50.328;7.610;2023-09-18T03:48:32;6.40;;;4.38;;
10293;SDS011;5192;50.328;7.610;2023-09-18T03:51:04;8.82;;;5.03;;
10293;SDS011;5192;50.328;7.610;2023-09-18T03:53:36;11.70;;;4.50;;
10293;SDS011;5192;50.328;7.610;2023-09-18T03:56:03;8.73;;;4.40;;
10293;SDS011;5192;50.328;7.610;2023-09-18T03:58:31;12.57;;;5.18;;
10293;SDS011;5192;50.328;7.610;2023-09-18T04:00:58;9.90;;;4.13;;
10293;SDS011;5192;50.328;7.610;2023-09-18T04:03:28;11.57;;;5.00;;
10293;SDS011;5192;50.328;7.610;2023-09-18T04:05:55;8.20;;;4.32;;
10293;SDS011;5192;50.328;7.610;2023-09-18T04:08:21;12.85;;;4.68;;
10293;SDS011;5192;50.328;7.610;2023-09-18T04:10:49;10.27;;;4.57;;
10293;SDS011;5192;50.328;7.610;2023-09-18T04:13:16;7.50;;;4.40;;
10293;SDS011;5192;50.328;7.610;2023-09-18T04:15:43;10.63;;;4.50;;
10293;SDS011;5192;50.328;7.610;2023-09-18T04:18:12;8.82;;;4.65;;
10293;SDS011;5192;50.328;7.610;2023-09-18T04:20:38;8.05;;;4.70;;
10293;SDS011;5192;50.328;7.610;2023-09-18T04:25:53;11.18;;;4.45;;
10293;SDS011;5192;50.328;7.610;2023-09-18T04:28:21;9.13;;;4.15;;
10293;SDS011;5192;50.328;7.610;2023-09-18T04:30:48;12.20;;;4.43;;
10293;SDS011;5192;50.328;7.610;2023-09-18T04:33:18;7.38;;;3.83;;
10293;SDS011;5192;50.328;7.610;2023-09-18T04:35:45;9.80;;;4.28;;
10293;SDS011;5192;50.328;7.610;2023-09-18T04:38:12;10.30;;;4.13;;
10293;SDS011;5192;50.328;7.610;2023-09-18T04:40:44;9.50;;;4.38;;
10293;SDS011;5192;50.328;7.610;2023-09-18T04:43:12;10.00;;;3.80;;
10293;SDS011;5192;50.328;7.610;2023-09-18T04:45:39;7.70;;;3.88;;
10293;SDS011;5192;50.328;7.610;2023-09-18T04:48:06;11.73;;;4.78;;
10293;SDS011;5192;50.328;7.610;2023-09-18T04:50:35;12.18;;;4.05;;
10293;SDS011;5192;50.328;7.610;2023-09-18T04:53:00;10.30;;;4.65;;
10293;SDS011;5192;50.328;7.610;2023-09-18T04:55:29;9.27;;;3.78;;
10293;SDS011;5192;50.328;7.610;2023-09-18T04:57:58;10.95;;;4.47;;
10293;SDS011;5192;50.328;7.610;2023-09-18T05:00:24;9.88;;;4.47;;
10293;SDS011;5192;50.328;7.610;2023-09-18T05:02:55;8.68;;;4.82;;
10293;SDS011;5192;50.328;7.610;2023-09-18T05:05:22;8.13;;;5.18;;
10293;SDS011;5192;50.328;7.610;2023-09-18T05:07:50;8.65;;;5.20;;
10293;SDS011;5192;50.328;7.610;2023-09-18T05:10:17;9.68;;;5.57;;
10293;SDS011;5192;50.328;7.610;2023-09-18T05:12:45;9.82;;;4.75;;
10293;SDS011;5192;50.328;7.610;2023-09-18T05:15:14;12.70;;;5.28;;
10293;SDS011;5192;50.328;7.610;2023-09-18T05:17:42;12.32;;;5.43;;
10293;SDS011;5192;50.328;7.610;2023-09-18T05:20:12;9.10;;;4.80;;
10293;SDS011;5192;50.328;7.610;2023-09-18T05:22:41;13.35;;;5.35;;
10293;SDS011;5192;50.328;7.610;2023-09-18T05:25:12;13.68;;;5.03;;
10293;SDS011;5192;50.328;7.610;2023-09-18T05:27:41;11.30;;;5.23;;
10293;SDS011;5192;50.328;7.610;2023-09-18T05:30:19;12.40;;;5.35;;
10293;SDS011;5192;50.328;7.610;2023-09-18T05:32:47;12.70;;;4.82;;
10293;SDS011;5192;50.328;7.610;2023-09-18T05:35:14;11.20;;;5.05;;
10293;SDS011;5192;50.328;7.610;2023-09-18T05:37:41;13.77;;;5.53;;
10293;SDS011;5192;50.328;7.610;2023-09-18T05:40:09;12.65;;;5.43;;
10293;SDS011;5192;50.328;7.610;2023-09-18T05:42:41;13.05;;;4.60;;
10293;SDS011;5192;50.328;7.610;2023-09-18T05:45:13;11.85;;;4.45;;
10293;SDS011;5192;50.328;7.610;2023-09-18T05:47:40;13.32;;;5.35;;
10293;SDS011;5192;50.328;7.610;2023-09-18T05:50:08;11.93;;;4.80;;
10293;SDS011;5192;50.328;7.610;2023-09-18T05:52:36;9.48;;;4.68;;
10293;SDS011;5192;50.328;7.610;2023-09-18T05:55:04;9.00;;;4.28;;
10293;SDS011;5192;50.328;7.610;2023-09-18T05:57:33;12.75;;;4.95;;
10293;SDS011;5192;50.328;7.610;2023-09-18T06:00:00;10.80;;;4.45;;
10293;SDS011;5192;50.328;7.610;2023-09-18T06:02:29;11.70;;;4.22;;
10293;SDS011;5192;50.328;7.610;2023-09-18T06:04:57;8.00;;;4.03;;
10293;SDS011;5192;50.328;7.610;2023-09-18T06:07:29;8.68;;;4.28;;
10293;SDS011;5192;50.328;7.610;2023-09-18T06:09:56;10.20;;;4.20;;
10293;SDS011;5192;50.328;7.610;2023-09-18T06:12:24;9.40;;;3.78;;
10293;SDS011;5192;50.328;7.610;2023-09-18T06:14:51;8.35;;;3.90;;
10293;SDS011;5192;50.328;7.610;2023-09-18T06:17:20;9.30;;;4.22;;
10293;SDS011;5192;50.328;7.610;2023-09-18T06:19:48;10.52;;;4.60;;
10293;SDS011;5192;50.328;7.610;2023-09-18T06:22:15;7.28;;;3.88;;
10293;SDS011;5192;50.328;7.610;2023-09-18T06:24:43;7.75;;;3.70;;
10293;SDS011;5192;50.328;7.610;2023-09-18T06:27:09;8.85;;;3.90;;
10293;SDS011;5192;50.328;7.610;2023-09-18T06:29:37;10.48;;;4.72;;
10293;SDS011;5192;50.328;7.610;2023-09-18T06:32:04;8.55;;;4.20;;
10293;SDS011;5192;50.328;7.610;2023-09-18T06:34:31;9.52;;;3.75;;
10293;SDS011;5192;50.328;7.610;2023-09-18T06:36:56;8.35;;;4.10;;
10293;SDS011;5192;50.328;7.610;2023-09-18T06:39:23;6.95;;;3.63;;
10293;SDS011;5192;50.328;7.610;2023-09-18T06:41:52;9.68;;;3.95;;
10293;SDS011;5192;50.328;7.610;2023-09-18T06:44:18;10.98;;;3.72;;
10293;SDS011;5192;50.328;7.610;2023-09-18T06:46:49;8.65;;;3.80;;
10293;SDS011;5192;50.328;7.610;2023-09-18T06:49:15;7.72;;;3.53;;
10293;SDS011;5192;50.328;7.610;2023-09-18T06:51:42;8.02;;;3.88;;
10293;SDS011;5192;50.328;7.610;2023-09-18T06:54:08;8.82;;;3.65;;
10293;SDS011;5192;50.328;7.610;2023-09-18T06:56:37;10.20;;;3.60;;
10293;SDS011;5192;50.328;7.610;2023-09-18T06:59:03;11.07;;;3.70;;
10293;SDS011;5192;50.328;7.610;2023-09-18T07:01:31;7.88;;;3.95;;
10293;SDS011;5192;50.328;7.610;2023-09-18T07:03:58;9.80;;;3.33;;
10293;SDS011;5192;50.328;7.610;2023-09-18T07:06:27;6.85;;;3.42;;
10293;SDS011;5192;50.328;7.610;2023-09-18T07:08:54;5.68;;;3.70;;
10293;SDS011;5192;50.328;7.610;2023-09-18T07:11:20;5.40;;;3.53;;
10293;SDS011;5192;50.328;7.610;2023-09-18T07:13:48;7.03;;;3.78;;
10293;SDS011;5192;50.328;7.610;2023-09-18T07:16:15;9.05;;;3.72;;
10293;SDS011;5192;50.328;7.610;2023-09-18T07:18:42;6.43;;;3.80;;
10293;SDS011;5192;50.328;7.610;2023-09-18T07:21:09;8.18;;;3.35;;
10293;SDS011;5192;50.328;7.610;2023-09-18T07:23:39;7.25;;;3.33;;
10293;SDS011;5192;50.328;7.610;2023-09-18T07:26:06;8.40;;;3.38;;
10293;SDS011;5192;50.328;7.610;2023-09-18T07:28:33;6.15;;;3.38;;
10293;SDS011;5192;50.328;7.610;2023-09-18T07:31:07;9.50;;;3.58;;
10293;SDS011;5192;50.328;7.610;2023-09-18T07:33:38;5.63;;;3.10;;
10293;SDS011;5192;50.328;7.610;2023-09-18T07:36:07;9.65;;;3.45;;
10293;SDS011;5192;50.328;7.610;2023-09-18T07:38:37;6.15;;;2.83;;
10293;SDS011;5192;50.328;7.610;2023-09-18T07:41:03;5.57;;;3.40;;
10293;SDS011;5192;50.328;7.610;2023-09-18T07:43:28;6.35;;;2.90;;
10293;SDS011;5192;50.328;7.610;2023-09-18T07:45:56;4.25;;;2.35;;
10293;SDS011;5192;50.328;7.610;2023-09-18T07:48:26;4.25;;;3.00;;
10293;SDS011;5192;50.328;7.610;2023-09-18T07:50:54;5.40;;;2.88;;
10293;SDS011;5192;50.328;7.610;2023-09-18T07:53:22;6.10;;;2.90;;
10293;SDS011;5192;50.328;7.610;2023-09-18T07:55:48;6.10;;;3.10;;
10293;SDS011;5192;50.328;7.610;2023-09-18T07:58:22;4.43;;;2.50;;
10293;SDS011;5192;50.328;7.610;2023-09-18T08:00:55;4.80;;;2.30;;
10293;SDS011;5192;50.328;7.610;2023-09-18T08:03:23;6.75;;;2.90;;
10293;SDS011;5192;50.328;7.610;2023-09-18T08:05:54;4.15;;;2.35;;
10293;SDS011;5192;50.328;7.610;2023-09-18T08:08:25;3.97;;;2.40;;
10293;SDS011;5192;50.328;7.610;2023-09-18T08:10:53;4.60;;;2.35;;
10293;SDS011;5192;50.328;7.610;2023-09-18T08:13:20;6.40;;;2.30;;
10293;SDS011;5192;50.328;7.610;2023-09-18T08:15:47;4.68;;;2.00;;
10293;SDS011;5192;50.328;7.610;2023-09-18T08:18:14;2.92;;;2.15;;
10293;SDS011;5192;50.328;7.610;2023-09-18T08:20:41;6.18;;;2.10;;
10293;SDS011;5192;50.328;7.610;2023-09-18T08:23:09;4.95;;;2.45;;
10293;SDS011;5192;50.328;7.610;2023-09-18T08:25:37;2.20;;;1.85;;
10293;SDS011;5192;50.328;7.610;2023-09-18T08:28:06;3.80;;;1.90;;
10293;SDS011;5192;50.328;7.610;2023-09-18T08:30:31;5.22;;;2.22;;
10293;SDS011;5192;50.328;7.610;2023-09-18T08:32:57;4.35;;;2.10;;
10293;SDS011;5192;50.328;7.610;2023-09-18T08:35:25;3.15;;;1.88;;
10293;SDS011;5192;50.328;7.610;2023-09-18T08:37:55;3.40;;;1.88;;
10293;SDS011;5192;50.328;7.610;2023-09-18T08:40:23;5.20;;;2.10;;
10293;SDS011;5192;50.328;7.610;2023-09-18T08:42:52;3.67;;;2.08;;
10293;SDS011;5192;50.328;7.610;2023-09-18T08:48:28;3.58;;;1.98;;
10293;SDS011;5192;50.328;7.610;2023-09-18T08:51:02;3.78;;;1.77;;
10293;SDS011;5192;50.328;7.610;2023-09-18T08:53:33;3.75;;;1.95;;
10293;SDS011;5192;50.328;7.610;2023-09-18T08:56:03;4.72;;;2.22;;
10293;SDS011;5192;50.328;7.610;2023-09-18T08:58:31;4.32;;;1.80;;
10293;SDS011;5192;50.328;7.610;2023-09-18T09:01:06;5.32;;;1.90;;
10293;SDS011;5192;50.328;7.610;2023-09-18T09:03:39;4.05;;;2.03;;
10293;SDS011;5192;50.328;7.610;2023-09-18T09:06:09;4.30;;;1.90;;
10293;SDS011;5192;50.328;7.610;2023-09-18T09:08:38;3.72;;;1.75;;
10293;SDS011;5192;50.328;7.610;2023-09-18T09:11:04;3.35;;;1.70;;
10293;SDS011;5192;50.328;7.610;2023-09-18T09:13:31;2.80;;;1.70;;
10293;SDS011;5192;50.328;7.610;2023-09-18T09:15:59;3.03;;;2.15;;
10293;SDS011;5192;50.328;7.610;2023-09-18T09:18:29;2.40;;;1.70;;
10293;SDS011;5192;50.328;7.610;2023-09-18T09:21:01;2.78;;;1.88;;
10293;SDS011;5192;50.328;7.610;2023-09-18T09:26:22;5.60;;;1.98;;
10293;SDS011;5192;50.328;7.610;2023-09-18T09:28:50;3.90;;;1.90;;
10293;SDS011;5192;50.328;7.610;2023-09-18T09:31:24;4.07;;;1.70;;
10293;SDS011;5192;50.328;7.610;2023-09-18T09:33:54;3.28;;;1.80;;
10293;SDS011;5192;50.328;7.610;2023-09-18T09:36:24;2.38;;;1.75;;
10293;SDS011;5192;50.328;7.610;2023-09-18T09:38:57;6.68;;;1.52;;
10293;SDS011;5192;50.328;7.610;2023-09-18T09:41:23;4.10;;;1.77;;
10293;SDS011;5192;50.328;7.610;2023-09-18T09:43:52;2.63;;;1.73;;
10293;SDS011;5192;50.328;7.610;2023-09-18T09:46:21;4.38;;;1.85;;
10293;SDS011;5192;50.328;7.610;2023-09-18T09:48:59;4.53;;;1.90;;
10293;SDS011;5192;50.328;7.610;2023-09-18T09:51:27;3.78;;;1.80;;
10293;SDS011;5192;50.328;7.610;2023-09-18T09:53:56;4.22;;;1.70;;
10293;SDS011;5192;50.328;7.610;2023-09-18T09:56:40;4.45;;;1.65;;
10293;SDS011;5192;50.328;7.610;2023-09-18T09:59:25;3.67;;;1.65;;
10293;SDS011;5192;50.328;7.610;2023-09-18T10:01:55;3.38;;;1.60;;
10293;SDS011;5192;50.328;7.610;2023-09-18T10:04:24;3.15;;;1.60;;
10293;SDS011;5192;50.328;7.610;2023-09-18T10:06:58;3.95;;;1.52;;
10293;SDS011;5192;50.328;7.610;2023-09-18T10:09:39;4.15;;;1.70;;
10293;SDS011;5192;50.328;7.610;2023-09-18T10:12:11;3.08;;;1.80;;
10293;SDS011;5192;50.328;7.610;2023-09-18T10:14:41;4.00;;;1.63;;
10293;SDS011;5192;50.328;7.610;2023-09-18T10:17:12;3.65;;;1.83;;
10293;SDS011;5192;50.328;7.610;2023-09-18T10:19:54;2.90;;;1.67;;
10293;SDS011;5192;50.328;7.610;2023-09-18T10:22:52;2.38;;;1.77;;
10293;SDS011;5192;50.328;7.610;2023-09-18T10:25:26;3.13;;;1.80;;
10293;SDS011;5192;50.328;7.610;2023-09-18T10:27:58;3.45;;;1.50;;
10293;SDS011;5192;50.328;7.610;2023-09-18T10:30:29;2.85;;;1.60;;
10293;SDS011;5192;50.328;7.610;2023-09-18T10:32:57;4.03;;;1.70;;
10293;SDS011;5192;50.328;7.610;2023-09-18T10:35:27;2.53;;;1.73;;
10293;SDS011;5192;50.328;7.610;2023-09-18T10:37:55;2.70;;;1.48;;
10293;SDS011;5192;50.328;7.610;2023-09-18T10:40:23;3.38;;;1.77;;
10293;SDS011;5192;50.328;7.610;2023-09-18T10:42:54;2.33;;;1.70;;
10293;SDS011;5192;50.328;7.610;2023-09-18T10:45:24;2.97;;;1.70;;
10293;SDS011;5192;50.328;7.610;2023-09-18T10:47:52;2.60;;;1.60;;
10293;SDS011;5192;50.328;7.610;2023-09-18T10:50:26;3.60;;;1.55;;
10293;SDS011;5192;50.328;7.610;2023-09-18T10:52:58;2.78;;;1.65;;
10293;SDS011;5192;50.328;7.610;2023-09-18T10:55:27;2.22;;;1.70;;
10293;SDS011;5192;50.328;7.610;2023-09-18T10:57:54;2.70;;;1.75;;
10293;SDS011;5192;50.328;7.610;2023-09-18T11:00:24;3.15;;;1.92;;
10293;SDS011;5192;50.328;7.610;2023-09-18T11:03:08;2.38;;;1.80;;
10293;SDS011;5192;50.328;7.610;2023-09-18T11:05:48;3.47;;;1.88;;
10293;SDS011;5192;50.328;7.610;2023-09-18T11:08:47;2.33;;;1.73;;
10293;SDS011;5192;50.328;7.610;2023-09-18T11:11:28;2.38;;;1.55;;
10293;SDS011;5192;50.328;7.610;2023-09-18T11:13:55;5.10;;;1.77;;
10293;SDS011;5192;50.328;7.610;2023-09-18T11:19:17;4.25;;;1.90;;
10293;SDS011;5192;50.328;7.610;2023-09-18T11:21:45;4.60;;;2.10;;
10293;SDS011;5192;50.328;7.610;2023-09-18T11:24:22;2.42;;;1.80;;
10293;SDS011;5192;50.328;7.610;2023-09-18T11:26:50;10.13;;;2.65;;
10293;SDS011;5192;50.328;7.610;2023-09-18T11:29:21;4.18;;;2.25;;
10293;SDS011;5192;50.328;7.610;2023-09-18T11:31:52;6.22;;;2.13;;
10293;SDS011;5192;50.328;7.610;2023-09-18T11:34:21;2.47;;;1.80;;
10293;SDS011;5192;50.328;7.610;2023-09-18T11:36:59;3.72;;;1.92;;
10293;SDS011;5192;50.328;7.610;2023-09-18T11:39:34;5.20;;;1.98;;
10293;SDS011;5192;50.328;7.610;2023-09-18T11:44:52;4.18;;;2.10;;
10293;SDS011;5192;50.328;7.610;2023-09-18T11:47:20;3.63;;;1.95;;
10293;SDS011;5192;50.328;7.610;2023-09-18T11:52:37;2.47;;;1.80;;
10293;SDS011;5192;50.328;7.610;2023-09-18T11:55:06;4.55;;;1.98;;
10293;SDS011;5192;50.328;7.610;2023-09-18T11:57:37;3.90;;;1.98;;
10293;SDS011;5192;50.328;7.610;2023-09-18T12:00:19;4.80;;;1.90;;
10293;SDS011;5192;50.328;7.610;2023-09-18T12:02:51;3.88;;;2.13;;
10293;SDS011;5192;50.328;7.610;2023-09-18T12:05:18;2.75;;;1.90;;
10293;SDS011;5192;50.328;7.610;2023-09-18T12:07:45;3.63;;;1.85;;
10293;SDS011;5192;50.328;7.610;2023-09-18T12:10:16;2.92;;;1.80;;
10293;SDS011;5192;50.328;7.610;2023-09-18T12:12:53;4.28;;;1.92;;
10293;SDS011;5192;50.328;7.610;2023-09-18T12:15:20;5.85;;;2.30;;
10293;SDS011;5192;50.328;7.610;2023-09-18T12:17:54;3.85;;;1.70;;
10293;SDS011;5192;50.328;7.610;2023-09-18T12:20:21;2.42;;;2.20;;
10293;SDS011;5192;50.328;7.610;2023-09-18T12:22:51;4.15;;;2.00;;
10293;SDS011;5192;50.328;7.610;2023-09-18T12:25:18;5.38;;;1.80;;
10293;SDS011;5192;50.328;7.610;2023-09-18T12:27:45;2.85;;;1.90;;
10293;SDS011;5192;50.328;7.610;2023-09-18T12:30:11;2.95;;;1.75;;
10293;SDS011;5192;50.328;7.610;2023-09-18T12:32:49;2.22;;;1.80;;
10293;SDS011;5192;50.328;7.610;2023-09-18T12:35:17;3.08;;;1.98;;
10293;SDS011;5192;50.328;7.610;2023-09-18T12:37:45;3.95;;;1.92;;
10293;SDS011;5192;50.328;7.610;2023-09-18T12:42:56;3.60;;;1.85;;
10293;SDS011;5192;50.328;7.610;2023-09-18T12:45:29;3.22;;;1.80;;
10293;SDS011;5192;50.328;7.610;2023-09-18T12:47:56;2.53;;;2.03;;
10293;SDS011;5192;50.328;7.610;2023-09-18T12:50:25;3.90;;;1.80;;
10293;SDS011;5192;50.328;7.610;2023-09-18T12:52:53;3.55;;;1.90;;
10293;SDS011;5192;50.328;7.610;2023-09-18T12:55:23;4.68;;;2.00;;
10293;SDS011;5192;50.328;7.610;2023-09-18T12:57:52;3.70;;;1.80;;
10293;SDS011;5192;50.328;7.610;2023-09-18T13:00:19;5.30;;;2.33;;
10293;SDS011;5192;50.328;7.610;2023-09-18T13:02:49;3.30;;;1.90;;
10293;SDS011;5192;50.328;7.610;2023-09-18T13:05:24;4.28;;;2.10;;
10293;SDS011;5192;50.328;7.610;2023-09-18T13:08:02;2.88;;;1.90;;
10293;SDS011;5192;50.328;7.610;2023-09-18T13:10:40;3.58;;;1.98;;
10293;SDS011;5192;50.328;7.610;2023-09-18T13:13:20;5.03;;;1.75;;
10293;SDS011;5192;50.328;7.610;2023-09-18T13:15:52;5.03;;;1.90;;
10293;SDS011;5192;50.328;7.610;2023-09-18T13:18:26;4.13;;;2.05;;
10293;SDS011;5192;50.328;7.610;2023-09-18T13:20:57;2.38;;;1.90;;
10293;SDS011;5192;50.328;7.610;2023-09-18T13:23:31;3.88;;;2.00;;
10293;SDS011;5192;50.328;7.610;2023-09-18T13:26:02;2.63;;;1.65;;
10293;SDS011;5192;50.328;7.610;2023-09-18T13:28:30;2.15;;;1.60;;
10293;SDS011;5192;50.328;7.610;2023-09-18T13:31:00;2.83;;;1.60;;
10293;SDS011;5192;50.328;7.610;2023-09-18T13:33:41;2.53;;;1.77;;
10293;SDS011;5192;50.328;7.610;2023-09-18T13:36:11;3.88;;;1.80;;
10293;SDS011;5192;50.328;7.610;2023-09-18T13:38:37;3.58;;;1.80;;
10293;SDS011;5192;50.328;7.610;2023-09-18T13:41:05;2.60;;;1.75;;
10293;SDS011;5192;50.328;7.610;2023-09-18T13:43:33;2.22;;;2.00;;
10293;SDS011;5192;50.328;7.610;2023-09-18T13:46:02;4.13;;;1.83;;
10293;SDS011;5192;50.328;7.610;2023-09-18T13:48:31;2.55;;;1.73;;
10293;SDS011;5192;50.328;7.610;2023-09-18T13:50:59;3.78;;;1.65;;
10293;SDS011;5192;50.328;7.610;2023-09-18T13:53:28;2.65;;;1.65;;
10293;SDS011;5192;50.328;7.610;2023-09-18T13:55:59;2.15;;;1.80;;
10293;SDS011;5192;50.328;7.610;2023-09-18T13:58:29;1.90;;;1.70;;
10293;SDS011;5192;50.328;7.610;2023-09-18T14:00:58;5.60;;;2.25;;
10293;SDS011;5192;50.328;7.610;2023-09-18T14:03:25;4.60;;;2.05;;
10293;SDS011;5192;50.328;7.610;2023-09-18T14:05:51;1.85;;;1.52;;
10293;SDS011;5192;50.328;7.610;2023-09-18T14:08:18;2.42;;;1.95;;
10293;SDS011;5192;50.328;7.610;2023-09-18T14:10:44;3.15;;;2.08;;
10293;SDS011;5192;50.328;7.610;2023-09-18T14:13:10;3.42;;;1.80;;
10293;SDS011;5192;50.328;7.610;2023-09-18T14:15:37;2.35;;;1.80;;
10293;SDS011;5192;50.328;7.610;2023-09-18T14:18:05;2.85;;;1.70;;
10293;SDS011;5192;50.328;7.610;2023-09-18T14:20:34;3.60;;;1.75;;
10293;SDS011;5192;50.328;7.610;2023-09-18T14:23:02;2.40;;;1.70;;
10293;SDS011;5192;50.328;7.610;2023-09-18T14:25:33;3.42;;;1.85;;
10293;SDS011;5192;50.328;7.610;2023-09-18T14:28:00;2.17;;;1.65;;
10293;SDS011;5192;50.328;7.610;2023-09-18T14:30:27;1.90;;;1.60;;
10293;SDS011;5192;50.328;7.610;2023-09-18T14:32:58;2.72;;;1.77;;
10293;SDS011;5192;50.328;7.610;2023-09-18T14:35:28;2.10;;;1.70;;
10293;SDS011;5192;50.328;7.610;2023-09-18T14:37:57;1.50;;;1.40;;
10293;SDS011;5192;50.328;7.610;2023-09-18T14:40:24;2.22;;;1.70;;
10293;SDS011;5192;50.328;7.610;2023-09-18T14:42:52;2.33;;;1.60;;
10293;SDS011;5192;50.328;7.610;2023-09-18T14:45:20;3.67;;;1.70;;
10293;SDS011;5192;50.328;7.610;2023-09-18T14:47:47;2.50;;;1.80;;
10293;SDS011;5192;50.328;7.610;2023-09-18T14:50:18;2.13;;;1.63;;
10293;SDS011;5192;50.328;7.610;2023-09-18T14:52:46;3.13;;;1.85;;
10293;SDS011;5192;50.328;7.610;2023-09-18T14:55:14;2.40;;;1.70;;
10293;SDS011;5192;50.328;7.610;2023-09-18T14:57:42;3.10;;;1.60;;
10293;SDS011;5192;50.328;7.610;2023-09-18T15:00:10;2.20;;;1.73;;
10293;SDS011;5192;50.328;7.610;2023-09-18T15:02:37;1.52;;;1.40;;
10293;SDS011;5192;50.328;7.610;2023-09-18T15:05:04;2.03;;;1.75;;
10293;SDS011;5192;50.328;7.610;2023-09-18T15:07:36;2.42;;;2.05;;
10293;SDS011;5192;50.328;7.610;2023-09-18T15:10:02;2.15;;;1.63;;
10293;SDS011;5192;50.328;7.610;2023-09-18T15:12:31;2.65;;;1.60;;
10293;SDS011;5192;50.328;7.610;2023-09-18T15:14:58;5.38;;;1.90;;
10293;SDS011;5192;50.328;7.610;2023-09-18T15:17:25;4.80;;;1.90;;
10293;SDS011;5192;50.328;7.610;2023-09-18T15:19:52;2.33;;;1.60;;
10293;SDS011;5192;50.328;7.610;2023-09-18T15:22:23;2.38;;;1.60;;
10293;SDS011;5192;50.328;7.610;2023-09-18T15:24:51;3.63;;;1.83;;
10293;SDS011;5192;50.328;7.610;2023-09-18T15:27:18;3.03;;;1.92;;
10293;SDS011;5192;50.328;7.610;2023-09-18T15:29:44;2.05;;;1.60;;
10293;SDS011;5192;50.328;7.610;2023-09-18T15:32:12;2.08;;;1.60;;
10293;SDS011;5192;50.328;7.610;2023-09-18T15:34:39;2.00;;;1.90;;